sensor_id;sensor_type;location;lat;lon;timestamp;P1;durP1;ratioP1;P2;durP2;ratioP2
1533;SDS011;760;48.822;9.304;2022-11-14T05:05:58;8.80;;;7.20;;
1533;SDS011;760;48.822;9.304;2022-11-14T05:08:25;8.57;;;6.18;;
1533;SDS011;760;48.822;9.304;2022-11-14T05:10:50;8.00;;;5.23;;
1533;SDS011;760;48.822;9.304;2022-11-14T05:13:16;11.00;;;7.03;;
1533;SDS011;760;48.822;9.304;2022-11-14T05:15:41;10.17;;;7.30;;
1533;SDS011;760;48.822;9.304;2022-11-14T05:18:07;8.70;;;6.37;;
1533;SDS011;760;48.822;9.304;2022-11-14T05:20:32;8.20;;;6.00;;
1533;SDS011;760;48.822;9.304;2022-11-14T05:22:58;11.60;;;6.30;;
1533;SDS011;760;48.822;9.304;2022-11-14T05:25:23;11.37;;;7.43;;
1533;SDS011;760;48.822;9.304;2022-11-14T05:27:49;10.33;;;6.40;;
1533;SDS011;760;48.822;9.304;2022-11-14T05:30:15;9.90;;;6.63;;
1533;SDS011;760;48.822;9.304;2022-11-14T05:32:41;11.25;;;6.55;;
1533;SDS011;760;48.822;9.304;2022-11-14T05:35:06;12.17;;;6.50;;
1533;SDS011;760;48.822;9.304;2022-11-14T05:37:33;7.03;;;6.32;;
1533;SDS011;760;48.822;9.304;2022-11-14T05:39:59;8.05;;;6.03;;
1533;SDS011;760;48.822;9.304;2022-11-14T05:42:26;8.10;;;6.40;;
1533;SDS011;760;48.822;9.304;2022-11-14T05:44:52;8.93;;;7.65;;
1533;SDS011;760;48.822;9.304;2022-11-14T05:47:17;9.57;;;6.63;;
1533;SDS011;760;48.822;9.304;2022-11-14T05:49:43;5.73;;;5.10;;
1533;SDS011;760;48.822;9.304;2022-11-14T05:52:08;7.13;;;5.90;;
1533;SDS011;760;48.822;9.304;2022-11-14T05:54:34;8.77;;;6.57;;
1533;SDS011;760;48.822;9.304;2022-11-14T05:56:59;7.83;;;6.70;;
1533;SDS011;760;48.822;9.304;2022-11-14T05:59:25;8.23;;;6.07;;
1533;SDS011;760;48.822;9.304;2022-11-14T06:01:51;8.82;;;5.80;;
1533;SDS011;760;48.822;9.304;2022-11-14T06:04:17;6.80;;;5.77;;
1533;SDS011;760;48.822;9.304;2022-11-14T06:06:42;9.20;;;7.27;;
1533;SDS011;760;48.822;9.304;2022-11-14T06:09:08;12.60;;;8.60;;
1533;SDS011;760;48.822;9.304;2022-11-14T06:11:34;10.17;;;5.73;;
1533;SDS011;760;48.822;9.304;2022-11-14T06:13:59;10.40;;;7.17;;
1533;SDS011;760;48.822;9.304;2022-11-14T06:16:25;13.10;;;8.60;;
1533;SDS011;760;48.822;9.304;2022-11-14T06:18:52;11.80;;;7.10;;
1533;SDS011;760;48.822;9.304;2022-11-14T06:21:18;11.27;;;8.35;;
1533;SDS011;760;48.822;9.304;2022-11-14T06:23:46;7.85;;;7.05;;
1533;SDS011;760;48.822;9.304;2022-11-14T06:28:49;11.05;;;7.97;;
1533;SDS011;760;48.822;9.304;2022-11-14T06:31:16;10.63;;;7.07;;
1533;SDS011;760;48.822;9.304;2022-11-14T06:33:42;7.97;;;6.82;;
1533;SDS011;760;48.822;9.304;2022-11-14T06:36:08;9.83;;;6.73;;
1533;SDS011;760;48.822;9.304;2022-11-14T06:38:35;11.82;;;6.93;;
1533;SDS011;760;48.822;9.304;2022-11-14T06:43:32;10.48;;;7.60;;
1533;SDS011;760;48.822;9.304;2022-11-14T06:46:03;9.07;;;7.18;;
1533;SDS011;760;48.822;9.304;2022-11-14T06:48:29;13.57;;;9.80;;
1533;SDS011;760;48.822;9.304;2022-11-14T06:50:56;10.88;;;6.53;;
1533;SDS011;760;48.822;9.304;2022-11-14T06:53:22;8.60;;;7.60;;
1533;SDS011;760;48.822;9.304;2022-11-14T06:55:55;14.63;;;9.65;;
1533;SDS011;760;48.822;9.304;2022-11-14T06:58:26;10.82;;;8.25;;
1533;SDS011;760;48.822;9.304;2022-11-14T07:00:53;12.00;;;8.88;;
1533;SDS011;760;48.822;9.304;2022-11-14T07:03:19;8.77;;;7.87;;
1533;SDS011;760;48.822;9.304;2022-11-14T07:05:44;14.17;;;9.80;;
1533;SDS011;760;48.822;9.304;2022-11-14T07:08:10;11.13;;;8.93;;
1533;SDS011;760;48.822;9.304;2022-11-14T07:10:36;11.83;;;10.33;;
1533;SDS011;760;48.822;9.304;2022-11-14T07:13:01;10.03;;;7.93;;
1533;SDS011;760;48.822;9.304;2022-11-14T07:15:27;12.80;;;9.50;;
1533;SDS011;760;48.822;9.304;2022-11-14T07:17:52;14.50;;;9.10;;
1533;SDS011;760;48.822;9.304;2022-11-14T07:20:18;10.83;;;8.20;;
1533;SDS011;760;48.822;9.304;2022-11-14T07:22:44;9.97;;;8.93;;
1533;SDS011;760;48.822;9.304;2022-11-14T07:25:10;11.75;;;8.63;;
1533;SDS011;760;48.822;9.304;2022-11-14T07:27:36;7.30;;;6.35;;
1533;SDS011;760;48.822;9.304;2022-11-14T07:30:02;7.90;;;6.50;;
1533;SDS011;760;48.822;9.304;2022-11-14T07:32:28;8.90;;;7.20;;
1533;SDS011;760;48.822;9.304;2022-11-14T07:34:54;8.20;;;7.07;;
1533;SDS011;760;48.822;9.304;2022-11-14T07:37:19;7.57;;;6.73;;
1533;SDS011;760;48.822;9.304;2022-11-14T07:39:45;11.57;;;8.67;;
1533;SDS011;760;48.822;9.304;2022-11-14T07:42:10;15.27;;;10.13;;
1533;SDS011;760;48.822;9.304;2022-11-14T07:44:36;13.10;;;9.73;;
1533;SDS011;760;48.822;9.304;2022-11-14T07:47:02;14.50;;;9.20;;
1533;SDS011;760;48.822;9.304;2022-11-14T07:49:27;11.00;;;9.70;;
1533;SDS011;760;48.822;9.304;2022-11-14T07:51:53;11.20;;;6.27;;
1533;SDS011;760;48.822;9.304;2022-11-14T07:54:18;10.53;;;6.90;;
1533;SDS011;760;48.822;9.304;2022-11-14T07:56:44;9.87;;;7.10;;
1533;SDS011;760;48.822;9.304;2022-11-14T07:59:10;9.87;;;7.73;;
1533;SDS011;760;48.822;9.304;2022-11-14T08:01:35;9.83;;;7.87;;
1533;SDS011;760;48.822;9.304;2022-11-14T08:04:01;10.87;;;6.70;;
1533;SDS011;760;48.822;9.304;2022-11-14T08:06:26;8.67;;;7.47;;
1533;SDS011;760;48.822;9.304;2022-11-14T08:08:52;13.67;;;7.63;;
1533;SDS011;760;48.822;9.304;2022-11-14T08:11:18;10.60;;;8.37;;
1533;SDS011;760;48.822;9.304;2022-11-14T08:14:03;8.10;;;7.30;;
1533;SDS011;760;48.822;9.304;2022-11-14T08:16:29;8.70;;;7.03;;
1533;SDS011;760;48.822;9.304;2022-11-14T08:18:55;10.20;;;7.33;;
1533;SDS011;760;48.822;9.304;2022-11-14T08:21:20;12.90;;;9.23;;
1533;SDS011;760;48.822;9.304;2022-11-14T08:23:46;13.37;;;8.30;;
1533;SDS011;760;48.822;9.304;2022-11-14T08:26:11;14.10;;;8.53;;
1533;SDS011;760;48.822;9.304;2022-11-14T08:28:37;9.30;;;7.63;;
1533;SDS011;760;48.822;9.304;2022-11-14T08:31:03;8.80;;;7.33;;
1533;SDS011;760;48.822;9.304;2022-11-14T08:33:29;6.68;;;5.65;;
1533;SDS011;760;48.822;9.304;2022-11-14T08:35:59;8.88;;;6.95;;
1533;SDS011;760;48.822;9.304;2022-11-14T08:38:29;7.63;;;5.68;;
1533;SDS011;760;48.822;9.304;2022-11-14T08:40:59;9.57;;;6.68;;
1533;SDS011;760;48.822;9.304;2022-11-14T08:43:25;8.93;;;7.63;;
1533;SDS011;760;48.822;9.304;2022-11-14T08:45:55;11.35;;;6.05;;
1533;SDS011;760;48.822;9.304;2022-11-14T08:48:23;8.43;;;6.53;;
1533;SDS011;760;48.822;9.304;2022-11-14T08:50:48;12.50;;;6.10;;
1533;SDS011;760;48.822;9.304;2022-11-14T08:53:14;8.50;;;6.10;;
1533;SDS011;760;48.822;9.304;2022-11-14T08:55:43;8.83;;;6.00;;
1533;SDS011;760;48.822;9.304;2022-11-14T08:58:09;8.32;;;5.40;;
1533;SDS011;760;48.822;9.304;2022-11-14T09:00:35;7.10;;;6.10;;
1533;SDS011;760;48.822;9.304;2022-11-14T09:03:05;7.67;;;6.80;;
1533;SDS011;760;48.822;9.304;2022-11-14T09:05:32;9.38;;;6.80;;
1533;SDS011;760;48.822;9.304;2022-11-14T09:07:58;6.35;;;5.38;;
1533;SDS011;760;48.822;9.304;2022-11-14T09:10:24;2.70;;;2.50;;
1533;SDS011;760;48.822;9.304;2022-11-14T09:12:59;5.70;;;2.50;;
1533;SDS011;760;48.822;9.304;2022-11-14T09:15:29;5.03;;;2.78;;
1533;SDS011;760;48.822;9.304;2022-11-14T09:17:55;2.55;;;1.52;;
1533;SDS011;760;48.822;9.304;2022-11-14T09:20:22;2.20;;;2.00;;
1533;SDS011;760;48.822;9.304;2022-11-14T09:22:49;2.40;;;2.00;;
1533;SDS011;760;48.822;9.304;2022-11-14T09:25:18;2.20;;;1.92;;
1533;SDS011;760;48.822;9.304;2022-11-14T09:27:44;2.17;;;1.73;;
1533;SDS011;760;48.822;9.304;2022-11-14T09:30:10;2.20;;;2.10;;
1533;SDS011;760;48.822;9.304;2022-11-14T09:32:36;2.15;;;1.95;;
1533;SDS011;760;48.822;9.304;2022-11-14T09:35:02;1.70;;;1.60;;
1533;SDS011;760;48.822;9.304;2022-11-14T09:37:28;2.92;;;2.05;;
1533;SDS011;760;48.822;9.304;2022-11-14T09:39:54;3.30;;;2.10;;
1533;SDS011;760;48.822;9.304;2022-11-14T09:45:26;1.92;;;1.63;;
1533;SDS011;760;48.822;9.304;2022-11-14T09:48:03;1.98;;;1.50;;
1533;SDS011;760;48.822;9.304;2022-11-14T09:50:39;5.55;;;2.05;;
1533;SDS011;760;48.822;9.304;2022-11-14T09:53:16;1.67;;;1.58;;
1533;SDS011;760;48.822;9.304;2022-11-14T09:55:57;2.38;;;1.58;;
1533;SDS011;760;48.822;9.304;2022-11-14T09:58:23;2.08;;;1.58;;
1533;SDS011;760;48.822;9.304;2022-11-14T10:00:52;1.23;;;1.23;;
1533;SDS011;760;48.822;9.304;2022-11-14T10:09:10;1.88;;;1.77;;
1533;SDS011;760;48.822;9.304;2022-11-14T10:17:22;4.72;;;1.70;;
1533;SDS011;760;48.822;9.304;2022-11-14T10:20:11;3.45;;;1.98;;
1533;SDS011;760;48.822;9.304;2022-11-14T10:25:24;2.10;;;1.88;;
1533;SDS011;760;48.822;9.304;2022-11-14T10:30:51;1.45;;;1.40;;
1533;SDS011;760;48.822;9.304;2022-11-14T10:33:38;1.60;;;1.50;;
1533;SDS011;760;48.822;9.304;2022-11-14T10:36:15;1.67;;;1.55;;
1533;SDS011;760;48.822;9.304;2022-11-14T10:38:49;2.08;;;1.67;;
1533;SDS011;760;48.822;9.304;2022-11-14T10:41:20;1.83;;;1.73;;
1533;SDS011;760;48.822;9.304;2022-11-14T10:43:49;3.38;;;1.45;;
1533;SDS011;760;48.822;9.304;2022-11-14T10:48:57;1.08;;;1.08;;
1533;SDS011;760;48.822;9.304;2022-11-14T10:54:18;1.13;;;1.13;;
1533;SDS011;760;48.822;9.304;2022-11-14T10:56:57;1.50;;;1.40;;
1533;SDS011;760;48.822;9.304;2022-11-14T10:59:23;1.40;;;1.30;;
1533;SDS011;760;48.822;9.304;2022-11-14T11:06:54;2.58;;;1.63;;
1533;SDS011;760;48.822;9.304;2022-11-14T11:09:23;0.90;;;0.90;;
1533;SDS011;760;48.822;9.304;2022-11-14T11:12:13;1.58;;;1.48;;
1533;SDS011;760;48.822;9.304;2022-11-14T11:14:42;2.55;;;1.25;;
1533;SDS011;760;48.822;9.304;2022-11-14T11:19:39;1.35;;;1.35;;
1533;SDS011;760;48.822;9.304;2022-11-14T11:22:25;1.52;;;1.42;;
1533;SDS011;760;48.822;9.304;2022-11-14T11:24:59;2.60;;;1.63;;
1533;SDS011;760;48.822;9.304;2022-11-14T11:27:25;0.90;;;0.90;;
1533;SDS011;760;48.822;9.304;2022-11-14T11:30:00;2.13;;;1.93;;
1533;SDS011;760;48.822;9.304;2022-11-14T11:32:41;1.20;;;1.20;;
1533;SDS011;760;48.822;9.304;2022-11-14T11:35:11;1.50;;;1.40;;
1533;SDS011;760;48.822;9.304;2022-11-14T11:37:40;1.50;;;1.40;;
1533;SDS011;760;48.822;9.304;2022-11-14T11:40:28;1.20;;;1.10;;
1533;SDS011;760;48.822;9.304;2022-11-14T11:42:57;3.83;;;1.20;;
1533;SDS011;760;48.822;9.304;2022-11-14T11:45:31;1.27;;;1.17;;
1533;SDS011;760;48.822;9.304;2022-11-14T11:48:03;1.20;;;1.10;;
1533;SDS011;760;48.822;9.304;2022-11-14T11:50:41;1.20;;;1.20;;
1533;SDS011;760;48.822;9.304;2022-11-14T11:55:45;1.27;;;1.17;;
1533;SDS011;760;48.822;9.304;2022-11-14T11:58:20;1.07;;;1.07;;
1533;SDS011;760;48.822;9.304;2022-11-14T12:00:52;1.40;;;1.30;;
1533;SDS011;760;48.822;9.304;2022-11-14T12:03:19;3.17;;;1.30;;
1533;SDS011;760;48.822;9.304;2022-11-14T12:06:28;1.23;;;1.13;;
1533;SDS011;760;48.822;9.304;2022-11-14T12:11:36;2.90;;;1.33;;
1533;SDS011;760;48.822;9.304;2022-11-14T12:14:11;1.23;;;1.20;;
1533;SDS011;760;48.822;9.304;2022-11-14T12:17:13;1.30;;;1.20;;
1533;SDS011;760;48.822;9.304;2022-11-14T12:22:31;1.20;;;1.20;;
1533;SDS011;760;48.822;9.304;2022-11-14T12:25:25;1.43;;;1.33;;
1533;SDS011;760;48.822;9.304;2022-11-14T12:30:28;1.53;;;1.43;;
1533;SDS011;760;48.822;9.304;2022-11-14T12:35:36;1.63;;;1.53;;
1533;SDS011;760;48.822;9.304;2022-11-14T12:38:03;1.17;;;1.10;;
1533;SDS011;760;48.822;9.304;2022-11-14T12:40:38;1.00;;;1.00;;
1533;SDS011;760;48.822;9.304;2022-11-14T12:45:55;1.87;;;1.70;;
1533;SDS011;760;48.822;9.304;2022-11-14T12:50:51;1.23;;;1.13;;
1533;SDS011;760;48.822;9.304;2022-11-14T12:53:36;1.30;;;1.20;;
1533;SDS011;760;48.822;9.304;2022-11-14T13:10:29;1.53;;;1.43;;
1533;SDS011;760;48.822;9.304;2022-11-14T13:13:08;2.00;;;1.40;;
1533;SDS011;760;48.822;9.304;2022-11-14T13:15:54;1.37;;;1.30;;
1533;SDS011;760;48.822;9.304;2022-11-14T13:27:24;1.40;;;1.30;;
1533;SDS011;760;48.822;9.304;2022-11-14T13:29:50;1.47;;;1.37;;
1533;SDS011;760;48.822;9.304;2022-11-14T13:35:10;1.50;;;1.40;;
1533;SDS011;760;48.822;9.304;2022-11-14T13:38:42;1.90;;;1.73;;
1533;SDS011;760;48.822;9.304;2022-11-14T13:41:07;3.00;;;1.30;;
1533;SDS011;760;48.822;9.304;2022-11-14T13:44:00;2.30;;;1.60;;
1533;SDS011;760;48.822;9.304;2022-11-14T13:52:17;1.67;;;1.57;;
1533;SDS011;760;48.822;9.304;2022-11-14T13:54:44;1.50;;;1.40;;
1533;SDS011;760;48.822;9.304;2022-11-14T13:57:20;1.30;;;1.20;;
1533;SDS011;760;48.822;9.304;2022-11-14T14:16:24;2.00;;;1.77;;
1533;SDS011;760;48.822;9.304;2022-11-14T14:19:30;1.20;;;1.13;;
1533;SDS011;760;48.822;9.304;2022-11-14T14:22:13;1.53;;;1.43;;
1533;SDS011;760;48.822;9.304;2022-11-14T14:27:38;1.40;;;1.30;;
1533;SDS011;760;48.822;9.304;2022-11-14T14:30:22;0.90;;;0.90;;
1533;SDS011;760;48.822;9.304;2022-11-14T14:35:32;1.33;;;1.10;;
1533;SDS011;760;48.822;9.304;2022-11-14T14:37:59;2.23;;;1.47;;
1533;SDS011;760;48.822;9.304;2022-11-14T14:42:53;1.60;;;1.23;;
1533;SDS011;760;48.822;9.304;2022-11-14T14:45:21;1.43;;;1.33;;
1533;SDS011;760;48.822;9.304;2022-11-14T14:47:49;1.50;;;1.40;;
1533;SDS011;760;48.822;9.304;2022-11-14T14:50:23;1.30;;;1.20;;
1533;SDS011;760;48.822;9.304;2022-11-14T14:52:54;2.27;;;1.73;;
1533;SDS011;760;48.822;9.304;2022-11-14T14:55:26;1.50;;;1.40;;
1533;SDS011;760;48.822;9.304;2022-11-14T14:57:53;5.10;;;1.57;;
1533;SDS011;760;48.822;9.304;2022-11-14T15:00:23;1.73;;;1.57;;
1533;SDS011;760;48.822;9.304;2022-11-14T15:02:56;2.03;;;1.50;;
1533;SDS011;760;48.822;9.304;2022-11-14T15:05:23;1.60;;;1.50;;
1533;SDS011;760;48.822;9.304;2022-11-14T15:07:50;2.00;;;1.53;;
1533;SDS011;760;48.822;9.304;2022-11-14T15:10:23;1.60;;;1.50;;
1533;SDS011;760;48.822;9.304;2022-11-14T15:12:53;1.67;;;1.57;;
1533;SDS011;760;48.822;9.304;2022-11-14T15:15:20;1.57;;;1.47;;
1533;SDS011;760;48.822;9.304;2022-11-14T15:17:50;1.83;;;1.73;;
1533;SDS011;760;48.822;9.304;2022-11-14T15:20:21;4.00;;;1.73;;
1533;SDS011;760;48.822;9.304;2022-11-14T15:25:59;1.47;;;1.37;;
1533;SDS011;760;48.822;9.304;2022-11-14T15:28:26;2.73;;;1.93;;
1533;SDS011;760;48.822;9.304;2022-11-14T15:30:57;1.87;;;1.77;;
1533;SDS011;760;48.822;9.304;2022-11-14T15:33:29;2.00;;;1.60;;
1533;SDS011;760;48.822;9.304;2022-11-14T15:38:32;1.57;;;1.47;;
1533;SDS011;760;48.822;9.304;2022-11-14T15:41:08;3.63;;;1.87;;
1533;SDS011;760;48.822;9.304;2022-11-14T15:48:50;2.07;;;1.87;;
1533;SDS011;760;48.822;9.304;2022-11-14T15:51:16;1.90;;;1.70;;
1533;SDS011;760;48.822;9.304;2022-11-14T15:53:44;1.67;;;1.57;;
1533;SDS011;760;48.822;9.304;2022-11-14T15:56:12;2.73;;;1.73;;
1533;SDS011;760;48.822;9.304;2022-11-14T15:58:38;1.67;;;1.60;;
1533;SDS011;760;48.822;9.304;2022-11-14T16:01:03;2.70;;;2.50;;
1533;SDS011;760;48.822;9.304;2022-11-14T16:03:33;2.00;;;1.90;;
1533;SDS011;760;48.822;9.304;2022-11-14T16:05:58;1.83;;;1.70;;
1533;SDS011;760;48.822;9.304;2022-11-14T16:08:24;1.80;;;1.60;;
1533;SDS011;760;48.822;9.304;2022-11-14T16:10:50;2.40;;;2.20;;
1533;SDS011;760;48.822;9.304;2022-11-14T16:13:15;4.00;;;2.00;;
1533;SDS011;760;48.822;9.304;2022-11-14T16:15:41;1.97;;;1.87;;
1533;SDS011;760;48.822;9.304;2022-11-14T16:18:06;1.60;;;1.50;;
1533;SDS011;760;48.822;9.304;2022-11-14T16:20:32;1.90;;;1.80;;
1533;SDS011;760;48.822;9.304;2022-11-14T16:23:01;3.17;;;2.20;;
1533;SDS011;760;48.822;9.304;2022-11-14T16:25:28;1.10;;;1.10;;
1533;SDS011;760;48.822;9.304;2022-11-14T16:27:54;1.37;;;1.37;;
1533;SDS011;760;48.822;9.304;2022-11-14T16:30:21;1.93;;;1.83;;
1533;SDS011;760;48.822;9.304;2022-11-14T16:32:48;2.23;;;1.63;;
1533;SDS011;760;48.822;9.304;2022-11-14T16:35:18;1.87;;;1.77;;
1533;SDS011;760;48.822;9.304;2022-11-14T16:37:49;2.30;;;1.80;;
1533;SDS011;760;48.822;9.304;2022-11-14T16:40:16;1.63;;;1.53;;
1533;SDS011;760;48.822;9.304;2022-11-14T16:42:43;2.37;;;2.27;;
1533;SDS011;760;48.822;9.304;2022-11-14T16:45:09;2.77;;;2.57;;
1533;SDS011;760;48.822;9.304;2022-11-14T16:47:35;2.07;;;1.87;;
1533;SDS011;760;48.822;9.304;2022-11-14T16:50:01;2.00;;;1.90;;
1533;SDS011;760;48.822;9.304;2022-11-14T16:52:27;1.50;;;1.40;;
1533;SDS011;760;48.822;9.304;2022-11-14T16:54:53;1.73;;;1.63;;
1533;SDS011;760;48.822;9.304;2022-11-14T16:57:19;1.53;;;1.43;;
1533;SDS011;760;48.822;9.304;2022-11-14T16:59:45;1.53;;;1.43;;
1533;SDS011;760;48.822;9.304;2022-11-14T17:02:12;2.90;;;1.77;;
1533;SDS011;760;48.822;9.304;2022-11-14T17:04:42;2.27;;;2.00;;
1533;SDS011;760;48.822;9.304;2022-11-14T17:07:12;1.80;;;1.70;;
1533;SDS011;760;48.822;9.304;2022-11-14T17:09:38;2.47;;;2.07;;
1533;SDS011;760;48.822;9.304;2022-11-14T17:12:03;2.10;;;1.73;;
1533;SDS011;760;48.822;9.304;2022-11-14T17:14:30;2.25;;;2.05;;
1533;SDS011;760;48.822;9.304;2022-11-14T17:16:55;2.07;;;1.73;;
1533;SDS011;760;48.822;9.304;2022-11-14T17:19:23;2.00;;;1.90;;
1533;SDS011;760;48.822;9.304;2022-11-14T17:21:49;3.20;;;2.47;;
1533;SDS011;760;48.822;9.304;2022-11-14T17:24:15;1.77;;;1.67;;
1533;SDS011;760;48.822;9.304;2022-11-14T17:26:40;2.23;;;1.87;;
1533;SDS011;760;48.822;9.304;2022-11-14T17:29:09;2.10;;;2.00;;
1533;SDS011;760;48.822;9.304;2022-11-14T17:31:36;3.45;;;2.00;;
1533;SDS011;760;48.822;9.304;2022-11-14T17:34:02;2.27;;;2.10;;
1533;SDS011;760;48.822;9.304;2022-11-14T17:36:28;2.10;;;1.77;;
1533;SDS011;760;48.822;9.304;2022-11-14T17:38:55;1.98;;;1.88;;
1533;SDS011;760;48.822;9.304;2022-11-14T17:41:22;1.52;;;1.25;;
1533;SDS011;760;48.822;9.304;2022-11-14T17:43:52;3.17;;;2.30;;
1533;SDS011;760;48.822;9.304;2022-11-14T17:46:21;2.85;;;2.60;;
1533;SDS011;760;48.822;9.304;2022-11-14T17:48:47;2.63;;;2.40;;
1533;SDS011;760;48.822;9.304;2022-11-14T17:51:13;2.27;;;2.07;;
1533;SDS011;760;48.822;9.304;2022-11-14T17:53:39;2.15;;;1.90;;
1533;SDS011;760;48.822;9.304;2022-11-14T17:56:05;2.67;;;2.35;;
1533;SDS011;760;48.822;9.304;2022-11-14T17:58:32;3.00;;;2.80;;
1533;SDS011;760;48.822;9.304;2022-11-14T18:00:58;3.47;;;3.23;;
1533;SDS011;760;48.822;9.304;2022-11-14T18:03:24;4.10;;;3.53;;
1533;SDS011;760;48.822;9.304;2022-11-14T18:05:50;3.70;;;3.40;;
1533;SDS011;760;48.822;9.304;2022-11-14T18:08:16;3.53;;;2.93;;
1533;SDS011;760;48.822;9.304;2022-11-14T18:10:42;3.10;;;2.80;;
1533;SDS011;760;48.822;9.304;2022-11-14T18:13:09;4.33;;;3.90;;
1533;SDS011;760;48.822;9.304;2022-11-14T18:15:36;2.80;;;2.60;;
1533;SDS011;760;48.822;9.304;2022-11-14T18:18:02;2.85;;;2.60;;
1533;SDS011;760;48.822;9.304;2022-11-14T18:20:28;2.77;;;2.57;;
1533;SDS011;760;48.822;9.304;2022-11-14T18:22:53;3.40;;;3.10;;
1533;SDS011;760;48.822;9.304;2022-11-14T18:25:19;2.50;;;2.30;;
1533;SDS011;760;48.822;9.304;2022-11-14T18:27:44;3.13;;;2.93;;
1533;SDS011;760;48.822;9.304;2022-11-14T18:30:10;3.80;;;2.13;;
1533;SDS011;760;48.822;9.304;2022-11-14T18:32:36;3.72;;;2.55;;
1533;SDS011;760;48.822;9.304;2022-11-14T18:35:02;3.43;;;2.83;;
1533;SDS011;760;48.822;9.304;2022-11-14T18:37:27;3.07;;;2.80;;
1533;SDS011;760;48.822;9.304;2022-11-14T18:39:54;4.93;;;3.90;;
1533;SDS011;760;48.822;9.304;2022-11-14T18:42:20;4.13;;;2.63;;
1533;SDS011;760;48.822;9.304;2022-11-14T18:44:46;2.93;;;2.73;;
1533;SDS011;760;48.822;9.304;2022-11-14T18:47:12;3.40;;;2.65;;
1533;SDS011;760;48.822;9.304;2022-11-14T18:49:41;3.28;;;3.08;;
1533;SDS011;760;48.822;9.304;2022-11-14T18:52:07;5.97;;;2.90;;
1533;SDS011;760;48.822;9.304;2022-11-14T18:54:32;2.30;;;2.20;;
1533;SDS011;760;48.822;9.304;2022-11-14T18:56:58;4.70;;;3.23;;
1533;SDS011;760;48.822;9.304;2022-11-14T18:59:25;3.45;;;2.53;;
1533;SDS011;760;48.822;9.304;2022-11-14T19:01:51;3.30;;;3.03;;
1533;SDS011;760;48.822;9.304;2022-11-14T19:04:17;2.70;;;2.50;;
1533;SDS011;760;48.822;9.304;2022-11-14T19:06:43;3.42;;;3.20;;
1533;SDS011;760;48.822;9.304;2022-11-14T19:09:10;3.20;;;3.00;;
1533;SDS011;760;48.822;9.304;2022-11-14T19:11:39;3.45;;;2.97;;
1533;SDS011;760;48.822;9.304;2022-11-14T19:14:24;4.03;;;3.72;;
1533;SDS011;760;48.822;9.304;2022-11-14T19:16:50;3.13;;;2.93;;
1533;SDS011;760;48.822;9.304;2022-11-14T19:19:16;3.80;;;2.60;;
1533;SDS011;760;48.822;9.304;2022-11-14T19:21:41;2.70;;;2.50;;
1533;SDS011;760;48.822;9.304;2022-11-14T19:24:07;3.50;;;3.20;;
1533;SDS011;760;48.822;9.304;2022-11-14T19:26:35;3.13;;;2.77;;
1533;SDS011;760;48.822;9.304;2022-11-14T19:29:05;3.85;;;3.47;;
1533;SDS011;760;48.822;9.304;2022-11-14T19:31:34;2.88;;;2.63;;
1533;SDS011;760;48.822;9.304;2022-11-14T19:34:00;3.17;;;2.77;;
1533;SDS011;760;48.822;9.304;2022-11-14T19:36:26;2.37;;;2.20;;
1533;SDS011;760;48.822;9.304;2022-11-14T19:38:55;2.50;;;2.30;;
1533;SDS011;760;48.822;9.304;2022-11-14T19:41:25;3.00;;;2.47;;
1533;SDS011;760;48.822;9.304;2022-11-14T19:43:52;3.45;;;3.17;;
1533;SDS011;760;48.822;9.304;2022-11-14T19:46:19;3.22;;;3.03;;
1533;SDS011;760;48.822;9.304;2022-11-14T19:48:59;3.38;;;3.10;;
1533;SDS011;760;48.822;9.304;2022-11-14T19:51:25;3.38;;;2.65;;
1533;SDS011;760;48.822;9.304;2022-11-14T19:53:52;5.22;;;4.30;;
1533;SDS011;760;48.822;9.304;2022-11-14T19:56:19;4.90;;;3.95;;
1533;SDS011;760;48.822;9.304;2022-11-14T19:58:46;3.15;;;2.85;;
1533;SDS011;760;48.822;9.304;2022-11-14T20:01:14;3.40;;;3.10;;
1533;SDS011;760;48.822;9.304;2022-11-14T20:04:05;3.65;;;2.75;;
1533;SDS011;760;48.822;9.304;2022-11-14T20:06:32;4.45;;;3.13;;
1533;SDS011;760;48.822;9.304;2022-11-14T20:09:06;4.05;;;3.35;;
1533;SDS011;760;48.822;9.304;2022-11-14T20:11:34;2.75;;;2.55;;
1533;SDS011;760;48.822;9.304;2022-11-14T20:14:00;3.00;;;2.80;;
1533;SDS011;760;48.822;9.304;2022-11-14T20:16:27;4.15;;;3.75;;
1533;SDS011;760;48.822;9.304;2022-11-14T20:18:55;3.70;;;3.25;;
1533;SDS011;760;48.822;9.304;2022-11-14T20:21:24;3.13;;;2.85;;
1533;SDS011;760;48.822;9.304;2022-11-14T20:23:51;3.25;;;2.90;;
1533;SDS011;760;48.822;9.304;2022-11-14T20:26:17;4.13;;;3.67;;
1533;SDS011;760;48.822;9.304;2022-11-14T20:28:44;6.70;;;3.40;;
1533;SDS011;760;48.822;9.304;2022-11-14T20:31:12;3.67;;;3.38;;
1533;SDS011;760;48.822;9.304;2022-11-14T20:33:40;4.43;;;3.95;;
1533;SDS011;760;48.822;9.304;2022-11-14T20:36:12;3.22;;;3.03;;
1533;SDS011;760;48.822;9.304;2022-11-14T20:38:49;7.28;;;4.53;;
1533;SDS011;760;48.822;9.304;2022-11-14T20:41:16;3.75;;;3.42;;
1533;SDS011;760;48.822;9.304;2022-11-14T20:43:42;3.60;;;3.30;;
1533;SDS011;760;48.822;9.304;2022-11-14T20:46:17;3.97;;;3.60;;
1533;SDS011;760;48.822;9.304;2022-11-14T20:48:45;3.03;;;2.83;;
1533;SDS011;760;48.822;9.304;2022-11-14T20:53:48;4.47;;;3.35;;
1533;SDS011;760;48.822;9.304;2022-11-14T20:56:15;6.85;;;3.50;;
1533;SDS011;760;48.822;9.304;2022-11-14T20:58:41;3.80;;;3.60;;
1533;SDS011;760;48.822;9.304;2022-11-14T21:01:08;4.70;;;3.85;;
1533;SDS011;760;48.822;9.304;2022-11-14T21:03:35;3.00;;;2.80;;
1533;SDS011;760;48.822;9.304;2022-11-14T21:06:00;4.38;;;3.10;;
1533;SDS011;760;48.822;9.304;2022-11-14T21:08:27;3.97;;;3.40;;
1533;SDS011;760;48.822;9.304;2022-11-14T21:10:58;3.60;;;2.80;;
1533;SDS011;760;48.822;9.304;2022-11-14T21:13:25;2.78;;;2.55;;
1533;SDS011;760;48.822;9.304;2022-11-14T21:16:13;3.03;;;2.70;;
1533;SDS011;760;48.822;9.304;2022-11-14T21:18:40;2.90;;;2.60;;
1533;SDS011;760;48.822;9.304;2022-11-14T21:21:16;6.13;;;2.90;;
1533;SDS011;760;48.822;9.304;2022-11-14T21:23:43;3.97;;;3.20;;
1533;SDS011;760;48.822;9.304;2022-11-14T21:26:14;3.80;;;3.20;;
1533;SDS011;760;48.822;9.304;2022-11-14T21:28:45;3.55;;;3.13;;
1533;SDS011;760;48.822;9.304;2022-11-14T21:31:17;2.80;;;2.55;;
1533;SDS011;760;48.822;9.304;2022-11-14T21:33:48;3.40;;;3.20;;
1533;SDS011;760;48.822;9.304;2022-11-14T21:36:15;4.07;;;3.28;;
1533;SDS011;760;48.822;9.304;2022-11-14T21:38:41;4.18;;;3.80;;
1533;SDS011;760;48.822;9.304;2022-11-14T21:41:09;3.50;;;3.10;;
1533;SDS011;760;48.822;9.304;2022-11-14T21:43:36;4.05;;;3.38;;
1533;SDS011;760;48.822;9.304;2022-11-14T21:46:02;3.40;;;3.17;;
1533;SDS011;760;48.822;9.304;2022-11-14T21:48:33;3.35;;;3.03;;
1533;SDS011;760;48.822;9.304;2022-11-14T21:51:04;3.20;;;3.00;;
1533;SDS011;760;48.822;9.304;2022-11-14T21:53:36;4.15;;;3.35;;
1533;SDS011;760;48.822;9.304;2022-11-14T21:56:06;4.40;;;3.67;;
1533;SDS011;760;48.822;9.304;2022-11-14T21:58:32;4.13;;;3.00;;
1533;SDS011;760;48.822;9.304;2022-11-14T22:01:05;4.27;;;3.87;;
1533;SDS011;760;48.822;9.304;2022-11-14T22:04:10;5.18;;;4.07;;
1533;SDS011;760;48.822;9.304;2022-11-14T22:06:36;4.87;;;4.57;;
1533;SDS011;760;48.822;9.304;2022-11-14T22:09:01;4.07;;;3.73;;
1533;SDS011;760;48.822;9.304;2022-11-14T22:11:27;3.97;;;3.57;;
1533;SDS011;760;48.822;9.304;2022-11-14T22:13:55;4.17;;;3.77;;
1533;SDS011;760;48.822;9.304;2022-11-14T22:16:22;5.63;;;4.28;;
1533;SDS011;760;48.822;9.304;2022-11-14T22:18:50;6.50;;;4.13;;
1533;SDS011;760;48.822;9.304;2022-11-14T22:21:16;3.53;;;3.20;;
1533;SDS011;760;48.822;9.304;2022-11-14T22:23:42;3.87;;;3.10;;
1533;SDS011;760;48.822;9.304;2022-11-14T22:26:08;3.75;;;3.35;;
1533;SDS011;760;48.822;9.304;2022-11-14T22:28:36;4.10;;;3.67;;
1533;SDS011;760;48.822;9.304;2022-11-14T22:31:06;4.28;;;3.67;;
1533;SDS011;760;48.822;9.304;2022-11-14T22:33:40;5.03;;;4.13;;
1533;SDS011;760;48.822;9.304;2022-11-14T22:36:09;9.73;;;3.78;;
1533;SDS011;760;48.822;9.304;2022-11-14T22:38:42;7.78;;;4.20;;
1533;SDS011;760;48.822;9.304;2022-11-14T22:41:10;3.30;;;3.00;;
1533;SDS011;760;48.822;9.304;2022-11-14T22:43:37;4.20;;;3.55;;
1533;SDS011;760;48.822;9.304;2022-11-14T22:46:03;3.93;;;3.13;;
1533;SDS011;760;48.822;9.304;2022-11-14T22:48:38;8.77;;;2.85;;
1533;SDS011;760;48.822;9.304;2022-11-14T22:51:15;3.25;;;2.95;;